Time;durP1;ratioP1;P1;durP2;ratioP2;P2;SDS_P1;SDS_P2;PMS_P1;PMS_P2;Temp;Humidity;BMP_temperature;BMP_pressure;BME280_temperature;BME280_humidity;BME280_pressure;Samples;Min_cycle;Max_cycle;Signal;HPM_P1;HPM_P2
2022/07/26 00:01:59;;;;;;;5.45;1.90;;;;;;;18.74;100.00;101232.63;5070959;28;20056;-33
2022/07/26 00:04:27;;;;;;;7.45;1.80;;;;;;;18.71;100.00;101228.47;5073220;28;20056;-37
2022/07/26 00:06:56;;;;;;;5.05;1.63;;;;;;;18.68;100.00;101229.16;5075122;28;20049;-35
2022/07/26 00:09:24;;;;;;;5.18;1.30;;;;;;;18.64;100.00;101233.84;5075366;28;20075;-38
2022/07/26 00:11:51;;;;;;;5.72;1.40;;;;;;;18.62;100.00;101235.34;5073874;28;20101;-34
2022/07/26 00:14:19;;;;;;;7.32;1.52;;;;;;;18.58;100.00;101236.00;5074521;28;20080;-42
2022/07/26 00:16:48;;;;;;;5.13;1.70;;;;;;;18.57;100.00;101242.03;5074912;28;20477;-35
2022/07/26 00:19:17;;;;;;;7.32;1.67;;;;;;;18.55;100.00;101238.72;5074609;28;20052;-31
2022/07/26 00:21:44;;;;;;;6.03;1.40;;;;;;;18.54;100.00;101254.03;5074915;28;20136;-31
2022/07/26 00:24:12;;;;;;;6.22;1.40;;;;;;;18.53;100.00;101249.53;5074245;28;20068;-31
2022/07/26 00:26:40;;;;;;;3.53;1.10;;;;;;;18.52;100.00;101257.19;5074497;28;20094;-32
2022/07/26 00:29:08;;;;;;;8.77;1.40;;;;;;;18.53;100.00;101256.03;5073278;28;20098;-35
2022/07/26 00:31:36;;;;;;;4.80;1.00;;;;;;;18.52;100.00;101260.03;5074349;28;20040;-36
2022/07/26 00:34:05;;;;;;;6.35;1.33;;;;;;;18.53;100.00;101260.84;5074296;28;20044;-32
2022/07/26 00:36:33;;;;;;;5.22;1.10;;;;;;;18.53;100.00;101255.19;5074903;28;20118;-37
2022/07/26 00:39:02;;;;;;;4.13;1.10;;;;;;;18.53;100.00;101258.84;5073961;28;20064;-34
2022/07/26 00:41:30;;;;;;;6.45;1.20;;;;;;;18.54;100.00;101268.16;5074506;28;20049;-32
2022/07/26 00:44:00;;;;;;;7.22;1.30;;;;;;;18.53;100.00;101260.84;5074252;28;20041;-31
2022/07/26 00:46:29;;;;;;;4.13;1.38;;;;;;;18.50;100.00;101258.69;5074164;28;20417;-34
2022/07/26 00:48:57;;;;;;;5.47;1.17;;;;;;;18.50;100.00;101264.34;5074034;28;20076;-32
2022/07/26 00:51:26;;;;;;;5.07;1.50;;;;;;;18.51;100.00;101263.19;5074518;28;20386;-32
2022/07/26 00:53:54;;;;;;;5.88;1.30;;;;;;;18.51;100.00;101266.00;5073738;28;20044;-31
2022/07/26 00:56:22;;;;;;;6.60;1.38;;;;;;;18.52;100.00;101270.50;5073192;28;20072;-32
2022/07/26 00:58:50;;;;;;;3.92;1.30;;;;;;;18.51;100.00;101272.50;5073220;28;20052;-32
2022/07/26 01:01:18;;;;;;;5.47;1.70;;;;;;;18.51;100.00;101268.84;5073493;28;20170;-39
2022/07/26 01:03:50;;;;;;;5.60;1.17;;;;;;;18.48;100.00;101273.19;5073686;28;20135;-34
2022/07/26 01:06:17;;;;;;;5.43;1.50;;;;;;;18.49;100.00;101276.84;5074348;28;20110;-36
2022/07/26 01:08:51;;;;;;;4.63;1.45;;;;;;;18.46;100.00;101275.50;5073366;28;20068;-31
2022/07/26 01:11:19;;;;;;;4.30;1.20;;;;;;;18.45;100.00;101279.50;5063271;28;20106;-31
2022/07/26 01:13:48;;;;;;;3.65;1.30;;;;;;;18.44;100.00;101277.03;5073264;28;20079;-31
2022/07/26 01:16:17;;;;;;;5.43;1.98;;;;;;;18.42;100.00;101277.38;5073633;28;20341;-33
2022/07/26 01:18:45;;;;;;;5.75;1.45;;;;;;;18.42;100.00;101285.00;5073770;28;20102;-31
2022/07/26 01:21:13;;;;;;;6.13;1.40;;;;;;;18.42;100.00;101288.66;5073482;28;20086;-34
2022/07/26 01:23:43;;;;;;;5.22;1.42;;;;;;;18.42;100.00;101293.50;5073559;28;20053;-32
2022/07/26 01:26:11;;;;;;;5.50;1.40;;;;;;;18.41;100.00;101287.00;5073759;28;20066;-32
2022/07/26 01:28:41;;;;;;;7.93;1.50;;;;;;;18.41;100.00;101297.47;5073378;28;20049;-31
2022/07/26 01:31:09;;;;;;;7.60;1.70;;;;;;;18.37;100.00;101297.38;5073318;28;20422;-32
2022/07/26 01:33:37;;;;;;;7.88;1.60;;;;;;;18.31;100.00;101297.88;5073793;28;20076;-34
2022/07/26 01:36:05;;;;;;;7.57;1.65;;;;;;;18.24;100.00;101296.41;5072675;28;20045;-34
2022/07/26 01:38:33;;;;;;;6.22;1.40;;;;;;;18.17;100.00;101298.13;5053622;28;20061;-33
2022/07/26 01:41:02;;;;;;;5.57;1.42;;;;;;;18.09;100.00;101308.28;5067903;28;20091;-34
2022/07/26 01:43:30;;;;;;;7.25;1.50;;;;;;;18.02;100.00;101307.97;5073268;28;20087;-31
2022/07/26 01:45:58;;;;;;;3.67;1.27;;;;;;;17.96;100.00;101306.53;5071934;28;20044;-35
2022/07/26 01:48:26;;;;;;;6.70;1.25;;;;;;;17.93;100.00;101307.22;5073027;28;20052;-36
2022/07/26 01:50:54;;;;;;;6.50;1.25;;;;;;;17.90;100.00;101311.53;5072654;28;20047;-33
2022/07/26 01:53:22;;;;;;;6.63;1.63;;;;;;;17.88;100.00;101313.84;5073439;28;20122;-34
2022/07/26 01:55:50;;;;;;;5.95;1.30;;;;;;;17.86;100.00;101315.34;5072708;28;20074;-34
2022/07/26 01:58:19;;;;;;;6.35;1.38;;;;;;;17.84;100.00;101323.34;5073081;28;20056;-40
2022/07/26 02:00:47;;;;;;;7.45;1.55;;;;;;;17.81;100.00;101321.19;5073019;28;20048;-32
2022/07/26 02:03:15;;;;;;;7.60;1.40;;;;;;;17.81;100.00;101329.66;5072275;28;20052;-41
2022/07/26 02:05:43;;;;;;;5.70;1.05;;;;;;;17.79;100.00;101331.97;5072941;28;20044;-31
2022/07/26 02:08:11;;;;;;;5.18;1.00;;;;;;;17.79;100.00;101323.50;5073178;28;20082;-30
2022/07/26 02:13:26;;;;;;;5.93;1.10;;;;;;;17.72;100.00;101334.50;5072716;28;20464;-37
2022/07/26 02:15:54;;;;;;;10.23;1.20;;;;;;;17.67;100.00;101334.69;5072786;28;20037;-31
2022/07/26 02:18:22;;;;;;;9.00;1.35;;;;;;;17.65;100.00;101337.00;5072372;28;20131;-33
2022/07/26 02:20:50;;;;;;;4.80;1.02;;;;;;;17.64;100.00;101340.97;5072568;28;20048;-31
2022/07/26 02:23:19;;;;;;;4.70;1.00;;;;;;;17.62;100.00;101340.47;5069314;28;20113;-36
2022/07/26 02:25:46;;;;;;;6.40;1.00;;;;;;;17.57;100.00;101344.31;5071773;28;20072;-32
2022/07/26 02:28:15;;;;;;;3.20;0.80;;;;;;;17.55;100.00;101343.81;5072134;28;20052;-37
2022/07/26 02:30:45;;;;;;;3.88;0.82;;;;;;;17.52;100.00;101345.31;5072654;28;20083;-30
2022/07/26 02:33:14;;;;;;;7.03;1.10;;;;;;;17.50;100.00;101339.16;5071673;28;20052;-33
2022/07/26 02:35:42;;;;;;;5.40;0.88;;;;;;;17.48;100.00;101344.31;5072636;28;20057;-30
2022/07/26 02:38:13;;;;;;;5.18;1.30;;;;;;;17.49;100.00;101347.97;5071762;28;20106;-33
2022/07/26 02:40:42;;;;;;;5.43;0.90;;;;;;;17.45;100.00;101344.97;5052108;28;20103;-36
2022/07/26 02:43:11;;;;;;;8.27;1.00;;;;;;;17.46;100.00;101352.28;5067503;28;20290;-31
2022/07/26 02:45:39;;;;;;;5.00;1.05;;;;;;;17.44;100.00;101360.25;5071652;28;20446;-30
2022/07/26 02:48:08;;;;;;;5.82;0.95;;;;;;;17.41;100.00;101360.91;5071749;28;20072;-30
2022/07/26 02:50:36;;;;;;;3.72;0.90;;;;;;;17.37;100.00;101365.56;5072382;28;20098;-31
2022/07/26 02:53:04;;;;;;;4.53;1.17;;;;;;;17.36;100.00;101372.38;5071378;28;20059;-32
2022/07/26 02:55:31;;;;;;;7.38;1.10;;;;;;;17.34;100.00;101377.53;5071735;28;20095;-30
2022/07/26 02:57:59;;;;;;;5.57;1.20;;;;;;;17.33;100.00;101377.84;5072117;28;20052;-38
2022/07/26 03:00:27;;;;;;;6.28;0.80;;;;;;;17.33;100.00;101373.03;5071575;28;20100;-31
2022/07/26 03:02:56;;;;;;;5.20;0.80;;;;;;;17.32;100.00;101367.72;5071526;28;20037;-36
2022/07/26 03:05:25;;;;;;;6.50;0.80;;;;;;;17.33;100.00;101372.22;5071831;28;20091;-35
2022/07/26 03:07:53;;;;;;;8.38;1.20;;;;;;;17.31;100.00;101375.38;5071001;28;20512;-31
2022/07/26 03:10:21;;;;;;;6.22;1.30;;;;;;;17.31;100.00;101383.00;5071986;28;20048;-30
2022/07/26 03:12:49;;;;;;;4.63;1.08;;;;;;;17.31;100.00;101378.19;5072001;28;20473;-34
2022/07/26 03:15:17;;;;;;;8.02;1.10;;;;;;;17.32;100.00;101381.84;5070850;28;20040;-33
2022/07/26 03:17:44;;;;;;;7.80;1.00;;;;;;;17.30;100.00;101387.81;5071860;28;20048;-37
2022/07/26 03:20:13;;;;;;;6.75;1.05;;;;;;;17.29;100.00;101396.59;5066160;28;20128;-33
2022/07/26 03:22:42;;;;;;;5.07;0.80;;;;;;;17.26;100.00;101398.09;5071726;28;20074;-31
2022/07/26 03:25:10;;;;;;;5.47;0.80;;;;;;;17.22;100.00;101397.91;5071424;28;20453;-34
2022/07/26 03:27:38;;;;;;;6.90;0.85;;;;;;;17.22;100.00;101391.44;5071348;28;20075;-41
2022/07/26 03:30:07;;;;;;;5.00;0.88;;;;;;;17.22;100.00;101405.53;5071274;28;20114;-37
2022/07/26 03:32:37;;;;;;;7.78;1.10;;;;;;;17.22;100.00;101400.72;5071500;28;20075;-32
2022/07/26 03:35:05;;;;;;;6.95;1.20;;;;;;;17.21;100.00;101403.88;5070496;28;20041;-31
2022/07/26 03:37:34;;;;;;;6.35;1.10;;;;;;;17.21;100.00;101395.41;5069764;28;20052;-37
2022/07/26 03:40:15;;;;;;;6.97;1.00;;;;;;;17.18;100.00;101411.03;5069878;28;20135;-40
2022/07/26 03:42:43;;;;;;;4.30;0.93;;;;;;;17.19;100.00;101415.50;5049787;28;20113;-33
2022/07/26 03:45:12;;;;;;;7.28;0.88;;;;;;;17.19;100.00;101421.13;5064460;28;20044;-32
2022/07/26 03:47:40;;;;;;;5.10;0.82;;;;;;;17.19;100.00;101423.13;5070284;28;20059;-33
2022/07/26 03:50:09;;;;;;;7.28;1.13;;;;;;;17.17;100.00;101422.66;5069534;28;20056;-30
2022/07/26 03:52:37;;;;;;;4.32;0.82;;;;;;;17.14;100.00;101421.31;5071122;28;20053;-30
2022/07/26 03:57:49;;;;;;;5.88;0.98;;;;;;;17.14;100.00;101435.41;5071210;28;20053;-31
2022/07/26 04:00:17;;;;;;;3.67;0.82;;;;;;;17.13;100.00;101427.28;5071336;28;20139;-38
2022/07/26 04:02:45;;;;;;;3.95;0.77;;;;;;;17.11;100.00;101430.44;5070821;28;20051;-41
2022/07/26 04:05:13;;;;;;;8.30;1.10;;;;;;;17.11;100.00;101435.25;5070826;28;20079;-31
2022/07/26 04:07:42;;;;;;;7.25;0.90;;;;;;;17.09;100.00;101435.56;5071035;28;20056;-36
2022/07/26 04:10:20;;;;;;;3.38;0.70;;;;;;;17.05;100.00;101445.84;5070532;28;20062;-31
2022/07/26 04:12:50;;;;;;;5.85;0.70;;;;;;;17.04;100.00;101444.19;5071301;28;20048;-32
2022/07/26 04:15:19;;;;;;;3.42;0.57;;;;;;;17.01;100.00;101446.81;5071032;28;20094;-34
2022/07/26 04:17:48;;;;;;;6.82;1.13;;;;;;;16.99;100.00;101443.50;5070808;28;20056;-30
2022/07/26 04:20:16;;;;;;;3.17;0.60;;;;;;;16.97;100.00;101452.31;5071006;28;20435;-32
2022/07/26 04:22:44;;;;;;;3.88;0.70;;;;;;;16.97;100.00;101449.50;5060182;28;20135;-33
2022/07/26 04:25:12;;;;;;;5.00;0.90;;;;;;;16.97;100.00;101457.94;5070362;28;20135;-31
2022/07/26 04:27:39;;;;;;;6.50;0.90;;;;;;;16.95;100.00;101448.97;5071128;28;20153;-36
2022/07/26 04:30:10;;;;;;;5.65;0.90;;;;;;;16.94;100.00;101461.41;5070834;28;20053;-36
2022/07/26 04:32:42;;;;;;;5.03;0.90;;;;;;;16.92;100.00;101471.34;5067557;28;20041;-31
2022/07/26 04:35:12;;;;;;;5.18;0.82;;;;;;;16.89;100.00;101478.47;5070841;28;20055;-33
2022/07/26 04:37:41;;;;;;;5.72;0.90;;;;;;;16.87;100.00;101473.16;5070464;28;20039;-39
2022/07/26 04:40:11;;;;;;;3.30;0.70;;;;;;;16.86;100.00;101482.78;5070954;28;20139;-39
2022/07/26 04:42:39;;;;;;;5.03;0.77;;;;;;;16.84;100.00;101481.44;5070846;28;20154;-37
2022/07/26 04:45:11;;;;;;;5.22;0.60;;;;;;;16.81;100.00;101479.25;5070463;28;20361;-36
2022/07/26 04:47:41;;;;;;;4.20;0.60;;;;;;;16.78;100.00;101486.41;5070199;28;20493;-34
2022/07/26 04:50:10;;;;;;;4.25;0.70;;;;;;;16.77;100.00;101484.75;5073120;28;20140;-36
2022/07/26 04:52:38;;;;;;;2.40;0.52;;;;;;;16.78;100.00;101483.59;5073718;28;20048;-33
2022/07/26 04:55:07;;;;;;;4.45;0.60;;;;;;;16.81;100.00;101482.09;5054148;28;20565;-32
2022/07/26 04:57:35;;;;;;;3.42;0.60;;;;;;;16.82;100.00;101481.75;5068638;28;20053;-31
2022/07/26 05:00:05;;;;;;;4.22;0.60;;;;;;;16.85;100.00;101495.22;5073880;28;20052;-34
2022/07/26 05:02:53;;;;;;;5.97;0.63;;;;;;;16.89;100.00;101501.03;5074109;28;20088;-42
2022/07/26 05:05:22;;;;;;;2.42;0.45;;;;;;;16.88;100.00;101502.19;5074370;28;20044;-37
2022/07/26 05:07:52;;;;;;;3.65;0.77;;;;;;;16.89;100.00;101501.03;5073104;28;20055;-31
2022/07/26 05:10:21;;;;;;;5.05;0.50;;;;;;;16.91;100.00;101507.19;5073706;28;20516;-34
2022/07/26 05:12:49;;;;;;;2.35;0.45;;;;;;;16.93;100.00;101515.31;5073195;28;20059;-34
2022/07/26 05:15:17;;;;;;;3.35;0.70;;;;;;;16.97;100.00;101513.50;5073688;28;20437;-35
2022/07/26 05:17:44;;;;;;;3.58;0.70;;;;;;;17.00;100.00;101535.38;5073414;28;20401;-31
2022/07/26 05:20:15;;;;;;;4.53;0.70;;;;;;;17.04;100.00;101536.41;5073313;28;20048;-30
2022/07/26 05:22:44;;;;;;;3.47;0.63;;;;;;;17.05;100.00;101538.91;5073273;28;20066;-34
2022/07/26 05:25:12;;;;;;;4.88;0.90;;;;;;;17.08;100.00;101538.25;5073683;28;20131;-30
2022/07/26 05:27:40;;;;;;;6.97;0.80;;;;;;;17.13;100.00;101545.72;5073201;28;20056;-33
2022/07/26 05:30:10;;;;;;;5.93;0.85;;;;;;;17.17;100.00;101544.75;5073599;28;20052;-30
2022/07/26 05:32:38;;;;;;;7.18;1.17;;;;;;;17.21;100.00;101551.38;5073459;28;20494;-37
2022/07/26 05:35:06;;;;;;;5.22;0.80;;;;;;;17.23;100.00;101551.06;5072849;28;20040;-30
2022/07/26 05:37:36;;;;;;;6.18;0.75;;;;;;;17.24;100.00;101552.72;5072966;28;20489;-34
2022/07/26 05:40:05;;;;;;;3.30;0.70;;;;;;;17.23;100.00;101551.88;5073711;28;20048;-32
2022/07/26 05:42:33;;;;;;;3.65;0.80;;;;;;;17.21;100.00;101559.00;5072781;28;20055;-31
2022/07/26 05:45:01;;;;;;;3.90;0.50;;;;;;;17.19;100.00;101562.16;5070094;28;20130;-39
2022/07/26 05:47:29;;;;;;;4.75;0.60;;;;;;;17.19;100.00;101550.88;5073545;28;20064;-30
2022/07/26 05:49:56;;;;;;;2.60;0.50;;;;;;;17.21;100.00;101561.84;5072148;28;20106;-40
2022/07/26 05:52:24;;;;;;;4.28;0.63;;;;;;;17.20;100.00;101561.00;5073591;28;20389;-31
2022/07/26 05:54:53;;;;;;;2.88;0.50;;;;;;;17.22;100.00;101569.16;5072718;28;20048;-32
2022/07/26 05:57:21;;;;;;;4.22;0.75;;;;;;;17.23;100.00;101576.44;5071796;28;20450;-31
2022/07/26 05:59:49;;;;;;;5.78;0.70;;;;;;;17.27;100.00;101579.44;5072958;28;20485;-31
2022/07/26 06:02:17;;;;;;;4.97;1.05;;;;;;;17.30;100.00;101588.09;5071964;28;20429;-32
2022/07/26 06:04:45;;;;;;;4.78;0.70;;;;;;;17.29;100.00;101577.97;5072681;28;20080;-36
2022/07/26 06:07:14;;;;;;;4.15;0.90;;;;;;;17.28;100.00;101579.13;5072522;28;20497;-32
2022/07/26 06:09:42;;;;;;;4.00;0.60;;;;;;;17.27;100.00;101590.72;5071821;28;20060;-37
2022/07/26 06:12:11;;;;;;;3.10;0.65;;;;;;;17.25;100.00;101590.22;5071540;28;20045;-33
2022/07/26 06:14:39;;;;;;;4.00;0.57;;;;;;;17.27;100.00;101602.03;5071435;28;20044;-36
2022/07/26 06:17:07;;;;;;;5.70;0.80;;;;;;;17.32;100.00;101599.88;5071877;28;20143;-31
2022/07/26 06:19:35;;;;;;;3.35;0.60;;;;;;;17.33;100.00;101598.72;5071911;28;20052;-37
2022/07/26 06:22:03;;;;;;;3.28;0.73;;;;;;;17.37;100.00;101602.56;5072766;28;20056;-30
2022/07/26 06:24:31;;;;;;;3.25;0.60;;;;;;;17.44;100.00;101607.72;5071778;28;20052;-35
2022/07/26 06:26:59;;;;;;;2.60;0.52;;;;;;;17.47;100.00;101610.72;5072662;28;20131;-33
2022/07/26 06:29:33;;;;;;;3.55;0.80;;;;;;;17.55;100.00;101614.72;5072546;28;20417;-32
2022/07/26 06:32:01;;;;;;;2.25;0.52;;;;;;;17.64;100.00;101624.06;5060827;28;20306;-31
2022/07/26 06:34:29;;;;;;;3.30;0.75;;;;;;;17.73;100.00;101621.28;5072061;28;20531;-32
2022/07/26 06:36:57;;;;;;;2.90;0.55;;;;;;;17.78;100.00;101621.97;5072603;28;20048;-38
2022/07/26 06:39:25;;;;;;;3.17;0.50;;;;;;;17.86;100.00;101631.59;5070482;28;20135;-35
2022/07/26 06:41:52;;;;;;;2.25;0.60;;;;;;;17.94;100.00;101635.59;5072214;28;20037;-35
2022/07/26 06:44:22;;;;;;;5.13;0.60;;;;;;;17.98;100.00;101640.25;5070372;28;20487;-37
2022/07/26 06:46:51;;;;;;;3.33;0.60;;;;;;;18.03;100.00;101640.09;5071910;28;20102;-37
2022/07/26 06:49:19;;;;;;;4.07;0.60;;;;;;;18.05;99.91;101646.22;5071825;28;20053;-33
2022/07/26 06:51:49;;;;;;;4.43;0.63;;;;;;;18.10;99.57;101646.06;5071551;28;20066;-31
2022/07/26 06:54:17;;;;;;;4.43;0.63;;;;;;;18.16;98.41;101643.94;5072047;28;20143;-31
2022/07/26 06:56:45;;;;;;;4.40;0.70;;;;;;;18.23;98.22;101639.44;5071807;28;20432;-31
2022/07/26 06:59:13;;;;;;;4.32;0.57;;;;;;;18.37;98.16;101646.94;5070816;28;20066;-31
2022/07/26 07:01:41;;;;;;;3.63;0.70;;;;;;;18.65;98.13;101653.91;5069255;28;20078;-32
2022/07/26 07:04:29;;;;;;;4.32;0.70;;;;;;;18.90;98.06;101650.22;5047804;28;20076;-42
2022/07/26 07:07:01;;;;;;;3.03;0.50;;;;;;;19.13;96.89;101652.81;5063652;28;20040;-33
2022/07/26 07:09:33;;;;;;;6.25;0.90;;;;;;;19.39;96.38;101650.69;5071713;28;20044;-36
2022/07/26 07:12:02;;;;;;;4.88;0.75;;;;;;;19.58;96.33;101653.16;5071145;28;20101;-35
2022/07/26 07:14:37;;;;;;;7.97;1.25;;;;;;;19.65;97.20;101656.25;5071054;28;20041;-31
2022/07/26 07:17:05;;;;;;;5.28;0.80;;;;;;;19.74;97.75;101659.06;5071415;28;20035;-31
2022/07/26 07:19:42;;;;;;;5.75;1.30;;;;;;;19.84;98.21;101667.97;5071220;28;20082;-41
2022/07/26 07:22:10;;;;;;;6.20;0.90;;;;;;;20.08;98.80;101666.50;5071506;28;20072;-31
2022/07/26 07:24:39;;;;;;;4.82;0.90;;;;;;;20.35;96.67;101677.31;5071985;28;20044;-32
2022/07/26 07:27:08;;;;;;;5.60;1.23;;;;;;;20.67;95.00;101678.56;5071025;28;20055;-33
2022/07/26 07:29:37;;;;;;;4.13;0.80;;;;;;;21.22;92.03;101674.50;5071641;28;20052;-39
2022/07/26 07:32:07;;;;;;;3.83;0.70;;;;;;;21.52;88.92;101678.00;5071542;28;20154;-33
2022/07/26 07:34:46;;;;;;;2.85;0.82;;;;;;;21.73;87.83;101675.88;5071064;28;20052;-31
2022/07/26 07:37:14;;;;;;;3.38;0.80;;;;;;;22.08;84.20;101681.06;5071418;28;20051;-32
2022/07/26 07:39:42;;;;;;;4.72;0.77;;;;;;;22.23;82.12;101695.38;5070656;28;20760;-33
2022/07/26 07:42:10;;;;;;;3.45;0.77;;;;;;;22.36;80.04;101696.19;5070625;28;20036;-32
2022/07/26 07:44:38;;;;;;;3.25;0.82;;;;;;;22.34;79.09;101699.41;5071433;28;20138;-32
2022/07/26 07:47:07;;;;;;;3.88;1.00;;;;;;;22.34;78.14;101698.56;5071492;28;20465;-34
2022/07/26 07:49:35;;;;;;;3.22;0.80;;;;;;;22.35;78.03;101708.75;5070544;28;20118;-33
2022/07/26 07:52:05;;;;;;;4.65;1.10;;;;;;;22.31;77.08;101702.97;5071216;28;20051;-32
2022/07/26 07:54:33;;;;;;;4.95;1.00;;;;;;;22.31;77.22;101710.66;5070842;28;20135;-39
2022/07/26 07:57:02;;;;;;;4.10;0.95;;;;;;;22.31;76.96;101714.31;5071036;28;20116;-39
2022/07/26 07:59:30;;;;;;;3.78;0.80;;;;;;;22.36;77.23;101718.13;5051529;28;20041;-38
2022/07/26 08:01:58;;;;;;;5.28;1.00;;;;;;;22.34;77.04;101719.31;5049661;28;20414;-33
2022/07/26 08:04:26;;;;;;;3.78;0.93;;;;;;;22.31;76.90;101713.50;5070889;28;20059;-34
2022/07/26 08:06:54;;;;;;;3.90;0.80;;;;;;;22.32;77.09;101721.69;5071390;28;20056;-33
2022/07/26 08:09:25;;;;;;;4.30;0.82;;;;;;;22.33;75.91;101723.34;5070523;28;20051;-36
2022/07/26 08:11:55;;;;;;;4.03;0.88;;;;;;;22.38;74.93;101719.41;5071001;28;20771;-32
2022/07/26 08:14:23;;;;;;;3.08;0.70;;;;;;;22.50;74.30;101725.06;5071091;28;20048;-31
2022/07/26 08:16:51;;;;;;;3.95;0.80;;;;;;;22.80;72.76;101727.59;5070749;28;20051;-35
2022/07/26 08:19:19;;;;;;;3.75;0.93;;;;;;;23.05;70.27;101716.94;5070811;28;20405;-37
2022/07/26 08:21:49;;;;;;;4.93;1.08;;;;;;;23.19;68.76;101725.88;5070978;28;20059;-39
2022/07/26 08:24:16;;;;;;;7.88;1.65;;;;;;;23.35;67.78;101726.75;5070574;28;20488;-32
2022/07/26 08:26:46;;;;;;;5.60;1.48;;;;;;;23.55;67.28;101734.25;5075055;28;20131;-33
2022/07/26 08:29:13;;;;;;;8.38;1.70;;;;;;;23.76;64.05;101733.16;5074843;28;20115;-31
2022/07/26 08:31:42;;;;;;;4.93;1.20;;;;;;;23.74;63.16;101735.56;5073824;28;20454;-32
2022/07/26 08:34:10;;;;;;;5.75;1.42;;;;;;;23.84;63.20;101740.69;5074569;28;20094;-32
2022/07/26 08:36:37;;;;;;;5.70;1.30;;;;;;;24.06;61.32;101740.03;5074201;28;20119;-35
2022/07/26 08:39:25;;;;;;;7.20;1.40;;;;;;;24.13;59.88;101736.53;5074434;28;20049;-41
2022/07/26 08:41:54;;;;;;;4.68;1.15;;;;;;;24.17;59.24;101737.44;5074847;28;20052;-33
2022/07/26 08:44:22;;;;;;;4.35;1.08;;;;;;;24.19;58.10;101750.13;5073946;28;20140;-35
2022/07/26 08:46:50;;;;;;;5.20;1.30;;;;;;;24.09;57.29;101755.56;5074309;28;20080;-41
2022/07/26 08:49:18;;;;;;;5.32;1.10;;;;;;;23.99;56.85;101754.09;5074174;28;20052;-32
2022/07/26 08:51:46;;;;;;;4.55;1.13;;;;;;;23.79;57.33;101758.88;5073765;28;20102;-32
2022/07/26 08:54:15;;;;;;;4.32;0.90;;;;;;;23.68;57.91;101758.63;5074268;28;20477;-34
2022/07/26 08:56:50;;;;;;;6.70;0.95;;;;;;;23.65;57.24;101767.06;5074403;28;20139;-32
2022/07/26 08:59:20;;;;;;;4.65;1.20;;;;;;;23.58;56.83;101772.59;5073423;28;20072;-33
2022/07/26 09:01:52;;;;;;;5.53;1.10;;;;;;;23.44;56.36;101769.31;5074051;28;20058;-36
2022/07/26 09:04:22;;;;;;;6.57;1.30;;;;;;;23.29;56.29;101776.63;5074079;28;20056;-33
2022/07/26 09:07:02;;;;;;;5.00;1.20;;;;;;;23.08;57.13;101784.56;5073502;28;20045;-38
2022/07/26 09:09:32;;;;;;;5.68;1.10;;;;;;;23.02;58.04;101784.81;5074048;28;20044;-41
2022/07/26 09:12:13;;;;;;;5.63;1.50;;;;;;;22.99;56.11;101790.38;5073676;28;20115;-34
2022/07/26 09:14:45;;;;;;;4.35;1.10;;;;;;;22.77;57.41;101799.47;5073500;28;20076;-32
2022/07/26 09:17:14;;;;;;;7.15;1.30;;;;;;;22.63;57.37;101805.53;5074211;28;20044;-39
2022/07/26 09:19:43;;;;;;;5.40;1.10;;;;;;;22.53;56.96;101794.66;5073286;28;20118;-33
2022/07/26 09:22:12;;;;;;;4.03;1.20;;;;;;;22.49;57.04;101805.06;5073588;28;20151;-40
2022/07/26 09:24:42;;;;;;;4.05;1.30;;;;;;;22.50;56.98;101807.56;5073712;28;20139;-39
2022/07/26 09:27:11;;;;;;;5.18;1.30;;;;;;;22.60;56.57;101806.22;5072968;28;20403;-31
2022/07/26 09:29:45;;;;;;;6.63;1.23;;;;;;;22.68;55.75;101808.13;5073886;28;20046;-35
2022/07/26 09:32:19;;;;;;;5.13;1.15;;;;;;;22.64;55.33;101810.03;5073487;28;20102;-32
2022/07/26 09:34:49;;;;;;;5.82;1.40;;;;;;;22.77;56.02;101811.72;5072955;28;20449;-40
2022/07/26 09:37:33;;;;;;;4.88;1.15;;;;;;;23.12;55.60;101826.19;5073183;28;20122;-31
2022/07/26 09:40:04;;;;;;;4.75;1.20;;;;;;;23.30;53.60;101819.00;5073269;28;20048;-33
2022/07/26 09:42:32;;;;;;;5.68;1.00;;;;;;;23.51;52.99;101824.47;5073144;28;20075;-38
2022/07/26 09:45:02;;;;;;;4.63;1.10;;;;;;;23.84;51.71;101820.50;5073502;28;20063;-42
2022/07/26 09:47:36;;;;;;;4.20;0.93;;;;;;;24.18;50.68;101816.91;5072687;28;20136;-32
2022/07/26 09:50:15;;;;;;;3.22;0.90;;;;;;;24.59;49.58;101814.69;5073410;28;20555;-33
2022/07/26 09:53:01;;;;;;;3.25;1.00;;;;;;;25.14;46.34;101812.69;5073079;28;20056;-33
2022/07/26 09:55:29;;;;;;;5.05;0.90;;;;;;;25.63;45.96;101824.34;5072623;28;20151;-38
2022/07/26 09:58:12;;;;;;;3.60;0.93;;;;;;;25.81;45.11;101827.53;5072888;28;20136;-32
2022/07/26 10:00:42;;;;;;;5.47;0.90;;;;;;;25.84;44.52;101826.78;5073531;28;20058;-34
2022/07/26 10:03:11;;;;;;;6.90;1.00;;;;;;;25.82;44.48;101832.88;5072172;28;20055;-37
2022/07/26 10:05:39;;;;;;;3.03;0.82;;;;;;;25.89;44.38;101835.03;5073066;28;20438;-35
2022/07/26 10:08:07;;;;;;;4.57;1.00;;;;;;;26.25;43.41;101840.19;5072226;28;20045;-32
2022/07/26 10:10:40;;;;;;;3.65;1.00;;;;;;;26.70;41.93;101847.06;5072665;28;20135;-36
2022/07/26 10:13:09;;;;;;;3.80;0.80;;;;;;;27.00;41.70;101852.84;5073023;28;20123;-38
2022/07/26 10:15:40;;;;;;;3.50;0.75;;;;;;;27.49;40.96;101849.00;5072462;28;20489;-33
2022/07/26 10:18:31;;;;;;;2.90;0.65;;;;;;;27.94;39.55;101847.91;5072516;28;20049;-42
2022/07/26 10:20:59;;;;;;;3.60;0.82;;;;;;;28.12;38.55;101855.47;5072575;28;20070;-32
2022/07/26 10:23:42;;;;;;;4.20;0.82;;;;;;;28.05;38.00;101852.50;5071533;28;20040;-36
2022/07/26 10:26:13;;;;;;;4.13;0.88;;;;;;;28.18;38.52;101853.03;5072823;28;20512;-34
2022/07/26 10:28:41;;;;;;;3.88;0.90;;;;;;;28.51;37.86;101852.13;5072323;28;20041;-42
2022/07/26 10:31:29;;;;;;;4.88;0.93;;;;;;;28.99;34.66;101860.69;5071841;28;20395;-32
2022/07/26 10:34:01;;;;;;;4.93;0.90;;;;;;;29.25;35.55;101856.72;5072449;28;20049;-33
2022/07/26 10:36:35;;;;;;;2.90;0.90;;;;;;;29.43;34.97;101855.59;5072238;28;20048;-34
2022/07/26 10:39:13;;;;;;;4.30;1.08;;;;;;;29.64;34.24;101851.16;5071981;28;20052;-32
2022/07/26 10:41:44;;;;;;;3.65;1.10;;;;;;;29.99;34.22;101857.00;5052634;28;20080;-35
2022/07/26 10:44:24;;;;;;;4.03;0.93;;;;;;;30.32;33.06;101858.72;5066577;28;20119;-34
2022/07/26 10:47:00;;;;;;;4.57;1.38;;;;;;;30.52;33.50;101864.06;5052056;28;20072;-34
2022/07/26 10:49:35;;;;;;;4.00;0.90;;;;;;;30.54;33.08;101865.28;5067780;28;20415;-40
2022/07/26 10:52:15;;;;;;;3.90;0.80;;;;;;;30.53;33.00;101866.53;5051609;28;20063;-35
2022/07/26 10:55:19;;;;;;;3.55;0.80;;;;;;;30.66;30.56;101872.72;5068736;28;20076;-40
2022/07/26 10:57:49;;;;;;;2.85;0.80;;;;;;;30.70;32.57;101870.66;5051701;28;20139;-35
2022/07/26 11:00:20;;;;;;;3.55;0.85;;;;;;;30.73;32.68;101876.41;5071193;28;20080;-39
2022/07/26 11:02:52;;;;;;;4.38;1.00;;;;;;;30.61;32.46;101881.75;5071988;28;20131;-33
2022/07/26 11:05:26;;;;;;;2.95;0.90;;;;;;;30.46;32.59;101872.28;5070823;28;20473;-38
2022/07/26 11:07:58;;;;;;;4.70;1.10;;;;;;;30.11;32.88;101873.09;5072274;28;20056;-37
2022/07/26 11:10:27;;;;;;;;;;;;;;;29.74;32.42;101882.84;5071909;28;20079;-39
2022/07/26 11:13:11;;;;;;;4.88;0.93;;;;;;;29.68;33.36;101893.09;5071050;28;19920;-36
2022/07/26 11:15:41;;;;;;;5.22;1.02;;;;;;;29.80;34.06;101889.84;5071499;28;20074;-35
2022/07/26 11:18:13;;;;;;;4.40;1.02;;;;;;;29.68;34.17;101886.50;5071730;28;20139;-40
2022/07/26 11:20:45;;;;;;;2.88;0.70;;;;;;;29.59;34.64;101892.63;5070583;28;20139;-32
2022/07/26 11:23:24;;;;;;;6.13;1.10;;;;;;;29.31;32.52;101898.25;5071649;28;20044;-32
2022/07/26 11:26:14;;;;;;;7.18;1.58;;;;;;;29.08;34.55;101907.16;5070985;28;20062;-37
2022/07/26 11:28:50;;;;;;;2.65;0.90;;;;;;;29.10;34.50;101902.66;5069165;28;20059;-37
2022/07/26 11:31:18;;;;;;;3.80;0.85;;;;;;;29.14;33.70;101905.56;5071490;28;20101;-37
2022/07/26 11:33:49;;;;;;;3.95;0.80;;;;;;;29.32;33.42;101911.41;5071061;28;20048;-40
2022/07/26 11:36:30;;;;;;;4.65;1.40;;;;;;;29.34;34.05;101897.44;5071382;28;20067;-33
2022/07/26 11:38:58;;;;;;;2.92;0.80;;;;;;;29.39;34.17;101897.03;5071936;28;20436;-35
2022/07/26 11:41:30;;;;;;;2.92;0.80;;;;;;;29.31;33.72;101898.25;5070557;28;20048;-36